sensor_id;sensor_type;location;lat;lon;timestamp;P1;durP1;ratioP1;P2;durP2;ratioP2
25349;SDS011;13302;48.796;11.978;2022-10-16T00:01:13;2.37;;;1.20;;
25349;SDS011;13302;48.796;11.978;2022-10-16T00:04:02;2.00;;;1.20;;
25349;SDS011;13302;48.796;11.978;2022-10-16T00:06:49;1.80;;;1.10;;
25349;SDS011;13302;48.796;11.978;2022-10-16T00:09:36;2.10;;;1.10;;
25349;SDS011;13302;48.796;11.978;2022-10-16T00:12:23;2.43;;;1.17;;
25349;SDS011;13302;48.796;11.978;2022-10-16T00:15:10;3.40;;;1.33;;
25349;SDS011;13302;48.796;11.978;2022-10-16T00:17:57;1.00;;;1.00;;
25349;SDS011;13302;48.796;11.978;2022-10-16T00:20:44;1.37;;;0.80;;
25349;SDS011;13302;48.796;11.978;2022-10-16T00:23:51;1.40;;;1.30;;
25349;SDS011;13302;48.796;11.978;2022-10-16T00:26:39;2.80;;;1.03;;
25349;SDS011;13302;48.796;11.978;2022-10-16T00:29:26;1.00;;;1.00;;
25349;SDS011;13302;48.796;11.978;2022-10-16T00:32:14;4.13;;;1.17;;
25349;SDS011;13302;48.796;11.978;2022-10-16T00:35:00;3.80;;;1.37;;
25349;SDS011;13302;48.796;11.978;2022-10-16T00:37:48;1.03;;;1.03;;
25349;SDS011;13302;48.796;11.978;2022-10-16T00:40:35;1.93;;;1.10;;
25349;SDS011;13302;48.796;11.978;2022-10-16T00:46:36;1.20;;;1.20;;
25349;SDS011;13302;48.796;11.978;2022-10-16T00:49:28;2.10;;;1.23;;
25349;SDS011;13302;48.796;11.978;2022-10-16T00:52:16;1.93;;;1.10;;
25349;SDS011;13302;48.796;11.978;2022-10-16T00:55:03;1.70;;;1.10;;
25349;SDS011;13302;48.796;11.978;2022-10-16T00:57:53;2.57;;;1.23;;
25349;SDS011;13302;48.796;11.978;2022-10-16T01:00:41;2.53;;;1.20;;
25349;SDS011;13302;48.796;11.978;2022-10-16T01:03:29;1.70;;;1.60;;
25349;SDS011;13302;48.796;11.978;2022-10-16T01:09:37;1.60;;;1.50;;
25349;SDS011;13302;48.796;11.978;2022-10-16T01:13:04;2.20;;;1.50;;
25349;SDS011;13302;48.796;11.978;2022-10-16T01:19:02;1.30;;;1.20;;
25349;SDS011;13302;48.796;11.978;2022-10-16T01:21:52;1.47;;;1.37;;
25349;SDS011;13302;48.796;11.978;2022-10-16T01:24:44;0.90;;;0.90;;
25349;SDS011;13302;48.796;11.978;2022-10-16T01:27:35;1.10;;;1.10;;
25349;SDS011;13302;48.796;11.978;2022-10-16T01:30:26;1.20;;;1.10;;
25349;SDS011;13302;48.796;11.978;2022-10-16T01:33:21;1.13;;;1.10;;
25349;SDS011;13302;48.796;11.978;2022-10-16T01:36:15;1.00;;;1.00;;
25349;SDS011;13302;48.796;11.978;2022-10-16T01:39:08;1.17;;;1.17;;
25349;SDS011;13302;48.796;11.978;2022-10-16T01:42:06;1.03;;;0.97;;
25349;SDS011;13302;48.796;11.978;2022-10-16T01:45:14;1.17;;;1.00;;
25349;SDS011;13302;48.796;11.978;2022-10-16T01:48:05;1.00;;;1.00;;
25349;SDS011;13302;48.796;11.978;2022-10-16T01:51:03;1.03;;;1.03;;
25349;SDS011;13302;48.796;11.978;2022-10-16T01:54:02;1.23;;;1.00;;
25349;SDS011;13302;48.796;11.978;2022-10-16T01:56:51;1.03;;;1.03;;
25349;SDS011;13302;48.796;11.978;2022-10-16T01:59:42;3.37;;;0.93;;
25349;SDS011;13302;48.796;11.978;2022-10-16T02:02:32;1.00;;;0.97;;
25349;SDS011;13302;48.796;11.978;2022-10-16T02:05:28;0.80;;;0.80;;
25349;SDS011;13302;48.796;11.978;2022-10-16T02:08:25;0.80;;;0.80;;
25349;SDS011;13302;48.796;11.978;2022-10-16T02:11:15;0.80;;;0.80;;
25349;SDS011;13302;48.796;11.978;2022-10-16T02:14:03;1.03;;;0.97;;
25349;SDS011;13302;48.796;11.978;2022-10-16T02:16:52;0.83;;;0.83;;
25349;SDS011;13302;48.796;11.978;2022-10-16T02:19:39;0.67;;;0.67;;
25349;SDS011;13302;48.796;11.978;2022-10-16T02:22:29;0.70;;;0.70;;
25349;SDS011;13302;48.796;11.978;2022-10-16T02:25:21;2.93;;;1.00;;
25349;SDS011;13302;48.796;11.978;2022-10-16T02:28:18;2.00;;;1.20;;
25349;SDS011;13302;48.796;11.978;2022-10-16T02:31:09;1.50;;;1.40;;
25349;SDS011;13302;48.796;11.978;2022-10-16T02:33:59;1.33;;;0.93;;
25349;SDS011;13302;48.796;11.978;2022-10-16T02:36:49;1.20;;;1.20;;
25349;SDS011;13302;48.796;11.978;2022-10-16T02:39:37;2.17;;;1.17;;
25349;SDS011;13302;48.796;11.978;2022-10-16T02:42:31;1.00;;;1.00;;
25349;SDS011;13302;48.796;11.978;2022-10-16T02:45:21;1.20;;;1.10;;
25349;SDS011;13302;48.796;11.978;2022-10-16T02:48:08;3.40;;;1.17;;
25349;SDS011;13302;48.796;11.978;2022-10-16T02:50:55;2.43;;;1.10;;
25349;SDS011;13302;48.796;11.978;2022-10-16T02:53:43;1.10;;;1.10;;
25349;SDS011;13302;48.796;11.978;2022-10-16T02:56:30;1.30;;;1.20;;
25349;SDS011;13302;48.796;11.978;2022-10-16T02:59:17;1.20;;;1.10;;
25349;SDS011;13302;48.796;11.978;2022-10-16T03:02:05;1.10;;;1.10;;
25349;SDS011;13302;48.796;11.978;2022-10-16T03:04:52;0.93;;;0.93;;
25349;SDS011;13302;48.796;11.978;2022-10-16T03:07:39;1.10;;;0.97;;
25349;SDS011;13302;48.796;11.978;2022-10-16T03:10:26;0.90;;;0.90;;
25349;SDS011;13302;48.796;11.978;2022-10-16T03:13:13;1.07;;;1.07;;
25349;SDS011;13302;48.796;11.978;2022-10-16T03:16:00;1.10;;;1.10;;
25349;SDS011;13302;48.796;11.978;2022-10-16T03:18:48;1.00;;;1.00;;
25349;SDS011;13302;48.796;11.978;2022-10-16T03:21:36;1.00;;;1.00;;
25349;SDS011;13302;48.796;11.978;2022-10-16T03:24:23;2.47;;;1.00;;
25349;SDS011;13302;48.796;11.978;2022-10-16T03:27:10;1.10;;;1.10;;
25349;SDS011;13302;48.796;11.978;2022-10-16T03:29:57;4.73;;;1.43;;
25349;SDS011;13302;48.796;11.978;2022-10-16T03:32:44;1.20;;;1.20;;
25349;SDS011;13302;48.796;11.978;2022-10-16T03:35:31;2.10;;;1.30;;
25349;SDS011;13302;48.796;11.978;2022-10-16T03:38:19;1.50;;;1.40;;
25349;SDS011;13302;48.796;11.978;2022-10-16T03:41:07;9.13;;;1.10;;
25349;SDS011;13302;48.796;11.978;2022-10-16T03:43:54;1.20;;;1.10;;
25349;SDS011;13302;48.796;11.978;2022-10-16T03:46:41;1.40;;;1.10;;
25349;SDS011;13302;48.796;11.978;2022-10-16T03:49:28;1.00;;;1.00;;
25349;SDS011;13302;48.796;11.978;2022-10-16T03:52:15;1.00;;;1.00;;
25349;SDS011;13302;48.796;11.978;2022-10-16T03:55:02;2.33;;;1.10;;
25349;SDS011;13302;48.796;11.978;2022-10-16T03:57:49;1.17;;;1.07;;
25349;SDS011;13302;48.796;11.978;2022-10-16T04:00:43;1.40;;;1.30;;
25349;SDS011;13302;48.796;11.978;2022-10-16T04:03:31;1.10;;;1.10;;
25349;SDS011;13302;48.796;11.978;2022-10-16T04:06:18;0.93;;;0.93;;
25349;SDS011;13302;48.796;11.978;2022-10-16T04:09:05;1.00;;;1.00;;
25349;SDS011;13302;48.796;11.978;2022-10-16T04:11:52;1.57;;;1.10;;
25349;SDS011;13302;48.796;11.978;2022-10-16T04:14:39;1.10;;;1.10;;
25349;SDS011;13302;48.796;11.978;2022-10-16T04:17:26;0.90;;;0.90;;
25349;SDS011;13302;48.796;11.978;2022-10-16T04:20:14;1.60;;;1.00;;
25349;SDS011;13302;48.796;11.978;2022-10-16T04:23:01;1.03;;;1.03;;
25349;SDS011;13302;48.796;11.978;2022-10-16T04:25:49;1.03;;;1.03;;
25349;SDS011;13302;48.796;11.978;2022-10-16T04:28:36;3.20;;;0.90;;
25349;SDS011;13302;48.796;11.978;2022-10-16T04:31:23;1.13;;;1.13;;
25349;SDS011;13302;48.796;11.978;2022-10-16T04:34:10;2.00;;;1.23;;
25349;SDS011;13302;48.796;11.978;2022-10-16T04:36:57;1.40;;;1.30;;
25349;SDS011;13302;48.796;11.978;2022-10-16T04:39:44;1.87;;;1.77;;
25349;SDS011;13302;48.796;11.978;2022-10-16T04:42:31;2.00;;;1.70;;
25349;SDS011;13302;48.796;11.978;2022-10-16T04:45:18;2.47;;;1.57;;
25349;SDS011;13302;48.796;11.978;2022-10-16T04:48:05;3.40;;;1.60;;
25349;SDS011;13302;48.796;11.978;2022-10-16T04:50:52;1.93;;;1.80;;
25349;SDS011;13302;48.796;11.978;2022-10-16T04:53:41;2.27;;;2.17;;
25349;SDS011;13302;48.796;11.978;2022-10-16T04:56:28;3.13;;;2.83;;
25349;SDS011;13302;48.796;11.978;2022-10-16T04:59:15;3.80;;;3.50;;
25349;SDS011;13302;48.796;11.978;2022-10-16T05:02:02;3.57;;;3.27;;
25349;SDS011;13302;48.796;11.978;2022-10-16T05:04:49;3.13;;;2.83;;
25349;SDS011;13302;48.796;11.978;2022-10-16T05:07:37;3.20;;;2.47;;
25349;SDS011;13302;48.796;11.978;2022-10-16T05:10:24;1.50;;;1.50;;
25349;SDS011;13302;48.796;11.978;2022-10-16T05:13:11;1.50;;;1.40;;
25349;SDS011;13302;48.796;11.978;2022-10-16T05:15:58;1.80;;;1.70;;
25349;SDS011;13302;48.796;11.978;2022-10-16T05:18:45;1.60;;;1.60;;
25349;SDS011;13302;48.796;11.978;2022-10-16T05:21:32;1.70;;;1.70;;
25349;SDS011;13302;48.796;11.978;2022-10-16T05:24:19;1.50;;;1.50;;
25349;SDS011;13302;48.796;11.978;2022-10-16T05:27:06;2.00;;;2.00;;
25349;SDS011;13302;48.796;11.978;2022-10-16T05:29:53;1.97;;;1.87;;
25349;SDS011;13302;48.796;11.978;2022-10-16T05:32:40;4.10;;;2.03;;
25349;SDS011;13302;48.796;11.978;2022-10-16T05:35:27;1.23;;;1.23;;
25349;SDS011;13302;48.796;11.978;2022-10-16T05:38:15;1.57;;;1.40;;
25349;SDS011;13302;48.796;11.978;2022-10-16T05:41:03;1.90;;;1.40;;
25349;SDS011;13302;48.796;11.978;2022-10-16T05:43:51;1.60;;;1.17;;
25349;SDS011;13302;48.796;11.978;2022-10-16T05:46:39;1.17;;;1.00;;
25349;SDS011;13302;48.796;11.978;2022-10-16T05:49:26;1.07;;;1.00;;
25349;SDS011;13302;48.796;11.978;2022-10-16T05:52:13;1.10;;;1.10;;
25349;SDS011;13302;48.796;11.978;2022-10-16T05:55:00;1.00;;;1.00;;
25349;SDS011;13302;48.796;11.978;2022-10-16T05:57:47;1.07;;;1.07;;
25349;SDS011;13302;48.796;11.978;2022-10-16T06:00:34;1.50;;;1.00;;
25349;SDS011;13302;48.796;11.978;2022-10-16T06:03:21;1.30;;;1.20;;
25349;SDS011;13302;48.796;11.978;2022-10-16T06:06:12;3.60;;;1.57;;
25349;SDS011;13302;48.796;11.978;2022-10-16T06:09:01;1.50;;;1.50;;
25349;SDS011;13302;48.796;11.978;2022-10-16T06:11:49;1.43;;;1.43;;
25349;SDS011;13302;48.796;11.978;2022-10-16T06:14:36;1.77;;;1.10;;
25349;SDS011;13302;48.796;11.978;2022-10-16T06:17:23;1.90;;;1.20;;
25349;SDS011;13302;48.796;11.978;2022-10-16T06:20:11;1.30;;;1.27;;
25349;SDS011;13302;48.796;11.978;2022-10-16T06:22:58;1.00;;;1.00;;
25349;SDS011;13302;48.796;11.978;2022-10-16T06:25:45;1.30;;;1.20;;
25349;SDS011;13302;48.796;11.978;2022-10-16T06:28:32;1.63;;;1.30;;
25349;SDS011;13302;48.796;11.978;2022-10-16T06:31:19;1.50;;;1.00;;
25349;SDS011;13302;48.796;11.978;2022-10-16T06:34:09;1.50;;;1.40;;
25349;SDS011;13302;48.796;11.978;2022-10-16T06:36:57;2.83;;;1.67;;
25349;SDS011;13302;48.796;11.978;2022-10-16T06:39:44;1.33;;;1.23;;
25349;SDS011;13302;48.796;11.978;2022-10-16T06:42:31;1.63;;;1.30;;
25349;SDS011;13302;48.796;11.978;2022-10-16T06:45:18;1.20;;;1.20;;
25349;SDS011;13302;48.796;11.978;2022-10-16T06:48:05;1.10;;;1.10;;
25349;SDS011;13302;48.796;11.978;2022-10-16T06:51:00;1.80;;;1.50;;
25349;SDS011;13302;48.796;11.978;2022-10-16T06:53:54;1.60;;;1.30;;
25349;SDS011;13302;48.796;11.978;2022-10-16T06:56:51;1.37;;;1.37;;
25349;SDS011;13302;48.796;11.978;2022-10-16T06:59:37;1.77;;;1.40;;
25349;SDS011;13302;48.796;11.978;2022-10-16T07:02:24;1.93;;;1.27;;
25349;SDS011;13302;48.796;11.978;2022-10-16T07:05:12;1.40;;;1.30;;
25349;SDS011;13302;48.796;11.978;2022-10-16T07:07:59;3.00;;;1.30;;
25349;SDS011;13302;48.796;11.978;2022-10-16T07:10:46;2.47;;;1.50;;
25349;SDS011;13302;48.796;11.978;2022-10-16T07:13:36;1.10;;;1.10;;
25349;SDS011;13302;48.796;11.978;2022-10-16T07:16:28;1.47;;;1.37;;
25349;SDS011;13302;48.796;11.978;2022-10-16T07:19:17;1.40;;;1.30;;
25349;SDS011;13302;48.796;11.978;2022-10-16T07:22:04;1.40;;;1.40;;
25349;SDS011;13302;48.796;11.978;2022-10-16T07:24:51;1.40;;;1.40;;
25349;SDS011;13302;48.796;11.978;2022-10-16T07:27:39;2.10;;;1.40;;
25349;SDS011;13302;48.796;11.978;2022-10-16T07:30:26;1.13;;;1.13;;
25349;SDS011;13302;48.796;11.978;2022-10-16T07:33:13;1.30;;;1.30;;
25349;SDS011;13302;48.796;11.978;2022-10-16T07:36:00;1.67;;;1.40;;
25349;SDS011;13302;48.796;11.978;2022-10-16T07:38:47;1.57;;;1.20;;
25349;SDS011;13302;48.796;11.978;2022-10-16T07:41:38;1.57;;;1.20;;
25349;SDS011;13302;48.796;11.978;2022-10-16T07:44:25;1.40;;;1.20;;
25349;SDS011;13302;48.796;11.978;2022-10-16T07:47:12;1.20;;;1.20;;
25349;SDS011;13302;48.796;11.978;2022-10-16T07:50:00;2.23;;;1.60;;
25349;SDS011;13302;48.796;11.978;2022-10-16T07:52:47;1.60;;;1.50;;
25349;SDS011;13302;48.796;11.978;2022-10-16T07:55:34;1.30;;;1.30;;
25349;SDS011;13302;48.796;11.978;2022-10-16T07:58:20;1.73;;;1.30;;
25349;SDS011;13302;48.796;11.978;2022-10-16T08:01:08;1.50;;;1.50;;
25349;SDS011;13302;48.796;11.978;2022-10-16T08:03:57;1.40;;;1.40;;
25349;SDS011;13302;48.796;11.978;2022-10-16T08:06:45;1.43;;;1.43;;
25349;SDS011;13302;48.796;11.978;2022-10-16T08:09:32;1.70;;;1.70;;
25349;SDS011;13302;48.796;11.978;2022-10-16T08:12:18;1.47;;;1.37;;
25349;SDS011;13302;48.796;11.978;2022-10-16T08:15:06;1.50;;;1.30;;
25349;SDS011;13302;48.796;11.978;2022-10-16T08:17:54;1.63;;;1.20;;
25349;SDS011;13302;48.796;11.978;2022-10-16T08:20:45;1.63;;;1.53;;
25349;SDS011;13302;48.796;11.978;2022-10-16T08:23:32;1.20;;;1.20;;
25349;SDS011;13302;48.796;11.978;2022-10-16T08:26:19;1.50;;;1.50;;
25349;SDS011;13302;48.796;11.978;2022-10-16T08:29:06;1.77;;;1.67;;
25349;SDS011;13302;48.796;11.978;2022-10-16T08:31:53;1.47;;;1.40;;
25349;SDS011;13302;48.796;11.978;2022-10-16T08:34:40;1.73;;;1.57;;
25349;SDS011;13302;48.796;11.978;2022-10-16T08:37:31;1.60;;;1.50;;
25349;SDS011;13302;48.796;11.978;2022-10-16T08:40:21;1.37;;;1.37;;
25349;SDS011;13302;48.796;11.978;2022-10-16T08:46:27;3.30;;;1.40;;
25349;SDS011;13302;48.796;11.978;2022-10-16T08:49:19;1.30;;;1.30;;
25349;SDS011;13302;48.796;11.978;2022-10-16T08:52:10;1.53;;;1.53;;
25349;SDS011;13302;48.796;11.978;2022-10-16T08:55:00;1.60;;;1.50;;
25349;SDS011;13302;48.796;11.978;2022-10-16T08:57:48;1.40;;;1.40;;
25349;SDS011;13302;48.796;11.978;2022-10-16T09:00:36;1.70;;;1.60;;
25349;SDS011;13302;48.796;11.978;2022-10-16T09:06:26;1.67;;;1.40;;
25349;SDS011;13302;48.796;11.978;2022-10-16T09:12:47;1.67;;;1.57;;
25349;SDS011;13302;48.796;11.978;2022-10-16T09:15:50;1.63;;;1.53;;
25349;SDS011;13302;48.796;11.978;2022-10-16T09:18:47;1.40;;;1.40;;
25349;SDS011;13302;48.796;11.978;2022-10-16T09:21:43;2.10;;;1.50;;
25349;SDS011;13302;48.796;11.978;2022-10-16T09:24:32;1.40;;;1.40;;
25349;SDS011;13302;48.796;11.978;2022-10-16T09:27:19;1.43;;;1.43;;
25349;SDS011;13302;48.796;11.978;2022-10-16T09:30:16;1.63;;;1.53;;
25349;SDS011;13302;48.796;11.978;2022-10-16T09:33:06;1.47;;;1.47;;
25349;SDS011;13302;48.796;11.978;2022-10-16T09:35:56;1.43;;;1.43;;
25349;SDS011;13302;48.796;11.978;2022-10-16T09:38:45;1.37;;;1.23;;
25349;SDS011;13302;48.796;11.978;2022-10-16T09:41:33;1.50;;;1.50;;
25349;SDS011;13302;48.796;11.978;2022-10-16T09:44:23;1.40;;;1.40;;
25349;SDS011;13302;48.796;11.978;2022-10-16T09:47:15;1.50;;;1.50;;
25349;SDS011;13302;48.796;11.978;2022-10-16T09:50:18;1.50;;;1.40;;
25349;SDS011;13302;48.796;11.978;2022-10-16T09:53:12;1.30;;;1.30;;
25349;SDS011;13302;48.796;11.978;2022-10-16T09:56:01;1.30;;;1.30;;
25349;SDS011;13302;48.796;11.978;2022-10-16T09:58:52;2.53;;;1.47;;
25349;SDS011;13302;48.796;11.978;2022-10-16T10:01:41;1.50;;;1.40;;
25349;SDS011;13302;48.796;11.978;2022-10-16T10:04:41;1.73;;;1.60;;
25349;SDS011;13302;48.796;11.978;2022-10-16T10:07:38;1.53;;;1.53;;
25349;SDS011;13302;48.796;11.978;2022-10-16T10:10:30;1.50;;;1.40;;
25349;SDS011;13302;48.796;11.978;2022-10-16T10:13:21;2.93;;;1.50;;
25349;SDS011;13302;48.796;11.978;2022-10-16T10:16:10;1.40;;;1.40;;
25349;SDS011;13302;48.796;11.978;2022-10-16T10:18:58;1.40;;;1.33;;
25349;SDS011;13302;48.796;11.978;2022-10-16T10:21:46;1.43;;;1.33;;
25349;SDS011;13302;48.796;11.978;2022-10-16T10:24:33;1.40;;;1.40;;
25349;SDS011;13302;48.796;11.978;2022-10-16T10:27:20;1.33;;;1.23;;
25349;SDS011;13302;48.796;11.978;2022-10-16T10:33:44;1.60;;;1.50;;
25349;SDS011;13302;48.796;11.978;2022-10-16T10:36:37;1.47;;;1.40;;
25349;SDS011;13302;48.796;11.978;2022-10-16T10:45:20;1.13;;;1.13;;
25349;SDS011;13302;48.796;11.978;2022-10-16T10:48:26;1.33;;;1.30;;
25349;SDS011;13302;48.796;11.978;2022-10-16T10:51:52;1.40;;;1.30;;
25349;SDS011;13302;48.796;11.978;2022-10-16T10:55:00;1.40;;;1.30;;
25349;SDS011;13302;48.796;11.978;2022-10-16T11:01:12;2.67;;;1.30;;
25349;SDS011;13302;48.796;11.978;2022-10-16T11:10:16;1.40;;;1.40;;
25349;SDS011;13302;48.796;11.978;2022-10-16T11:13:19;1.47;;;1.43;;
25349;SDS011;13302;48.796;11.978;2022-10-16T11:16:17;1.70;;;1.50;;
25349;SDS011;13302;48.796;11.978;2022-10-16T11:19:19;2.03;;;1.50;;
25349;SDS011;13302;48.796;11.978;2022-10-16T11:28:17;1.53;;;1.40;;
25349;SDS011;13302;48.796;11.978;2022-10-16T11:31:14;1.20;;;1.20;;
25349;SDS011;13302;48.796;11.978;2022-10-16T11:34:09;1.20;;;1.20;;
25349;SDS011;13302;48.796;11.978;2022-10-16T11:37:10;1.47;;;1.07;;
25349;SDS011;13302;48.796;11.978;2022-10-16T11:43:43;1.20;;;1.20;;
25349;SDS011;13302;48.796;11.978;2022-10-16T11:46:37;1.13;;;1.13;;
25349;SDS011;13302;48.796;11.978;2022-10-16T11:49:51;1.47;;;1.10;;
25349;SDS011;13302;48.796;11.978;2022-10-16T11:56:01;1.03;;;1.03;;
25349;SDS011;13302;48.796;11.978;2022-10-16T12:02:43;1.20;;;1.20;;
25349;SDS011;13302;48.796;11.978;2022-10-16T12:08:14;0.97;;;0.97;;
25349;SDS011;13302;48.796;11.978;2022-10-16T12:11:20;1.60;;;1.00;;
25349;SDS011;13302;48.796;11.978;2022-10-16T12:17:04;0.80;;;0.80;;
25349;SDS011;13302;48.796;11.978;2022-10-16T12:23:03;1.07;;;1.07;;
25349;SDS011;13302;48.796;11.978;2022-10-16T12:25:55;0.93;;;0.93;;
25349;SDS011;13302;48.796;11.978;2022-10-16T12:28:45;1.00;;;1.00;;
25349;SDS011;13302;48.796;11.978;2022-10-16T12:31:39;1.20;;;1.20;;
25349;SDS011;13302;48.796;11.978;2022-10-16T12:34:43;2.77;;;1.30;;
25349;SDS011;13302;48.796;11.978;2022-10-16T12:37:32;1.17;;;1.17;;
25349;SDS011;13302;48.796;11.978;2022-10-16T12:51:58;1.20;;;1.20;;
25349;SDS011;13302;48.796;11.978;2022-10-16T12:54:45;1.10;;;1.10;;
25349;SDS011;13302;48.796;11.978;2022-10-16T12:57:40;1.90;;;1.13;;
25349;SDS011;13302;48.796;11.978;2022-10-16T13:06:57;1.17;;;0.93;;
25349;SDS011;13302;48.796;11.978;2022-10-16T13:19:15;1.47;;;1.03;;
25349;SDS011;13302;48.796;11.978;2022-10-16T13:28:21;0.90;;;0.90;;
25349;SDS011;13302;48.796;11.978;2022-10-16T13:31:15;1.20;;;1.03;;
25349;SDS011;13302;48.796;11.978;2022-10-16T13:34:11;1.10;;;1.10;;
25349;SDS011;13302;48.796;11.978;2022-10-16T13:37:01;1.10;;;1.10;;
25349;SDS011;13302;48.796;11.978;2022-10-16T13:39:48;1.27;;;1.10;;
25349;SDS011;13302;48.796;11.978;2022-10-16T13:42:37;0.97;;;0.97;;
25349;SDS011;13302;48.796;11.978;2022-10-16T13:45:24;1.13;;;1.13;;
25349;SDS011;13302;48.796;11.978;2022-10-16T13:48:12;0.90;;;0.90;;
25349;SDS011;13302;48.796;11.978;2022-10-16T13:51:17;1.10;;;1.00;;
25349;SDS011;13302;48.796;11.978;2022-10-16T13:54:05;1.00;;;1.00;;
25349;SDS011;13302;48.796;11.978;2022-10-16T13:56:52;3.60;;;1.03;;
25349;SDS011;13302;48.796;11.978;2022-10-16T13:59:54;1.00;;;1.00;;
25349;SDS011;13302;48.796;11.978;2022-10-16T14:02:42;1.07;;;1.07;;
25349;SDS011;13302;48.796;11.978;2022-10-16T14:05:29;1.23;;;1.03;;
25349;SDS011;13302;48.796;11.978;2022-10-16T14:08:16;1.20;;;1.10;;
25349;SDS011;13302;48.796;11.978;2022-10-16T14:11:03;1.20;;;1.10;;
25349;SDS011;13302;48.796;11.978;2022-10-16T14:13:50;0.80;;;0.80;;
25349;SDS011;13302;48.796;11.978;2022-10-16T14:16:38;1.13;;;1.07;;
25349;SDS011;13302;48.796;11.978;2022-10-16T14:19:28;0.97;;;0.97;;
25349;SDS011;13302;48.796;11.978;2022-10-16T14:25:25;1.10;;;1.10;;
25349;SDS011;13302;48.796;11.978;2022-10-16T14:28:21;1.07;;;1.07;;
25349;SDS011;13302;48.796;11.978;2022-10-16T14:31:22;1.10;;;1.10;;
25349;SDS011;13302;48.796;11.978;2022-10-16T14:34:25;0.93;;;0.93;;
25349;SDS011;13302;48.796;11.978;2022-10-16T14:37:24;1.00;;;1.00;;
25349;SDS011;13302;48.796;11.978;2022-10-16T14:40:14;2.83;;;0.90;;
25349;SDS011;13302;48.796;11.978;2022-10-16T14:43:02;1.17;;;1.17;;
25349;SDS011;13302;48.796;11.978;2022-10-16T14:45:52;1.90;;;1.10;;
25349;SDS011;13302;48.796;11.978;2022-10-16T14:48:44;1.70;;;1.30;;
25349;SDS011;13302;48.796;11.978;2022-10-16T14:51:41;1.00;;;1.00;;
25349;SDS011;13302;48.796;11.978;2022-10-16T14:54:31;0.83;;;0.83;;
25349;SDS011;13302;48.796;11.978;2022-10-16T14:57:18;1.00;;;1.00;;
25349;SDS011;13302;48.796;11.978;2022-10-16T15:00:18;1.90;;;1.03;;
25349;SDS011;13302;48.796;11.978;2022-10-16T15:03:08;2.00;;;1.10;;
25349;SDS011;13302;48.796;11.978;2022-10-16T15:05:55;1.10;;;1.10;;
25349;SDS011;13302;48.796;11.978;2022-10-16T15:08:42;1.83;;;1.03;;
25349;SDS011;13302;48.796;11.978;2022-10-16T15:11:29;1.33;;;1.23;;
25349;SDS011;13302;48.796;11.978;2022-10-16T15:14:18;1.03;;;1.03;;
25349;SDS011;13302;48.796;11.978;2022-10-16T15:17:07;1.10;;;1.10;;
25349;SDS011;13302;48.796;11.978;2022-10-16T15:19:56;1.10;;;1.00;;
25349;SDS011;13302;48.796;11.978;2022-10-16T15:22:45;1.23;;;0.90;;
25349;SDS011;13302;48.796;11.978;2022-10-16T15:25:37;3.33;;;1.20;;
25349;SDS011;13302;48.796;11.978;2022-10-16T15:28:28;1.10;;;1.10;;
25349;SDS011;13302;48.796;11.978;2022-10-16T15:31:15;2.07;;;1.03;;
25349;SDS011;13302;48.796;11.978;2022-10-16T15:34:02;1.00;;;1.00;;
25349;SDS011;13302;48.796;11.978;2022-10-16T15:36:50;1.30;;;1.30;;
25349;SDS011;13302;48.796;11.978;2022-10-16T15:39:38;1.07;;;1.07;;
25349;SDS011;13302;48.796;11.978;2022-10-16T15:42:27;1.50;;;0.97;;
25349;SDS011;13302;48.796;11.978;2022-10-16T15:45:15;1.20;;;1.10;;
25349;SDS011;13302;48.796;11.978;2022-10-16T15:48:02;1.50;;;1.23;;
25349;SDS011;13302;48.796;11.978;2022-10-16T15:50:50;3.60;;;1.27;;
25349;SDS011;13302;48.796;11.978;2022-10-16T15:53:37;6.00;;;1.20;;
25349;SDS011;13302;48.796;11.978;2022-10-16T15:56:24;3.03;;;1.20;;
25349;SDS011;13302;48.796;11.978;2022-10-16T15:59:12;3.63;;;1.03;;
25349;SDS011;13302;48.796;11.978;2022-10-16T16:01:59;3.73;;;1.17;;
25349;SDS011;13302;48.796;11.978;2022-10-16T16:04:46;1.80;;;1.00;;
25349;SDS011;13302;48.796;11.978;2022-10-16T16:07:36;1.00;;;0.90;;
25349;SDS011;13302;48.796;11.978;2022-10-16T16:10:24;1.57;;;1.20;;
25349;SDS011;13302;48.796;11.978;2022-10-16T16:13:11;1.90;;;0.97;;
25349;SDS011;13302;48.796;11.978;2022-10-16T16:15:58;0.83;;;0.83;;
25349;SDS011;13302;48.796;11.978;2022-10-16T16:18:45;1.00;;;1.00;;
25349;SDS011;13302;48.796;11.978;2022-10-16T16:21:33;1.93;;;1.23;;
25349;SDS011;13302;48.796;11.978;2022-10-16T16:24:20;2.30;;;0.93;;
25349;SDS011;13302;48.796;11.978;2022-10-16T16:27:07;0.97;;;0.97;;
25349;SDS011;13302;48.796;11.978;2022-10-16T16:29:55;1.73;;;1.10;;
25349;SDS011;13302;48.796;11.978;2022-10-16T16:32:42;0.93;;;0.93;;
25349;SDS011;13302;48.796;11.978;2022-10-16T16:35:30;1.07;;;1.07;;
25349;SDS011;13302;48.796;11.978;2022-10-16T16:38:17;3.90;;;1.07;;
25349;SDS011;13302;48.796;11.978;2022-10-16T16:41:13;1.23;;;1.20;;
25349;SDS011;13302;48.796;11.978;2022-10-16T16:44:03;1.90;;;1.20;;
25349;SDS011;13302;48.796;11.978;2022-10-16T16:46:52;6.77;;;2.00;;
25349;SDS011;13302;48.796;11.978;2022-10-16T16:49:41;6.10;;;1.50;;
25349;SDS011;13302;48.796;11.978;2022-10-16T16:52:28;5.70;;;1.30;;
25349;SDS011;13302;48.796;11.978;2022-10-16T16:55:15;2.27;;;1.20;;
25349;SDS011;13302;48.796;11.978;2022-10-16T16:58:02;3.07;;;1.10;;
25349;SDS011;13302;48.796;11.978;2022-10-16T17:00:51;4.53;;;1.60;;
25349;SDS011;13302;48.796;11.978;2022-10-16T17:03:55;2.10;;;1.30;;
25349;SDS011;13302;48.796;11.978;2022-10-16T17:06:43;1.40;;;1.30;;
25349;SDS011;13302;48.796;11.978;2022-10-16T17:09:31;1.40;;;1.30;;
25349;SDS011;13302;48.796;11.978;2022-10-16T17:12:19;1.60;;;1.40;;
25349;SDS011;13302;48.796;11.978;2022-10-16T17:15:06;8.73;;;1.43;;
25349;SDS011;13302;48.796;11.978;2022-10-16T17:17:54;3.17;;;1.30;;
25349;SDS011;13302;48.796;11.978;2022-10-16T17:20:41;4.87;;;1.50;;
25349;SDS011;13302;48.796;11.978;2022-10-16T17:23:29;4.60;;;1.57;;
25349;SDS011;13302;48.796;11.978;2022-10-16T17:26:16;2.53;;;1.20;;
25349;SDS011;13302;48.796;11.978;2022-10-16T17:29:03;2.27;;;1.00;;
25349;SDS011;13302;48.796;11.978;2022-10-16T17:31:51;2.73;;;1.53;;
25349;SDS011;13302;48.796;11.978;2022-10-16T17:34:38;1.90;;;1.40;;
25349;SDS011;13302;48.796;11.978;2022-10-16T17:37:25;1.20;;;1.20;;
25349;SDS011;13302;48.796;11.978;2022-10-16T17:40:12;1.70;;;1.43;;
25349;SDS011;13302;48.796;11.978;2022-10-16T17:43:00;3.67;;;1.23;;
25349;SDS011;13302;48.796;11.978;2022-10-16T17:45:47;1.40;;;1.30;;
25349;SDS011;13302;48.796;11.978;2022-10-16T17:48:38;3.27;;;1.33;;
25349;SDS011;13302;48.796;11.978;2022-10-16T17:51:27;3.60;;;1.40;;
25349;SDS011;13302;48.796;11.978;2022-10-16T17:54:15;1.40;;;1.30;;
25349;SDS011;13302;48.796;11.978;2022-10-16T17:57:02;1.70;;;1.50;;
25349;SDS011;13302;48.796;11.978;2022-10-16T17:59:49;3.20;;;1.27;;
25349;SDS011;13302;48.796;11.978;2022-10-16T18:02:36;1.90;;;1.63;;
25349;SDS011;13302;48.796;11.978;2022-10-16T18:05:27;2.67;;;1.83;;
25349;SDS011;13302;48.796;11.978;2022-10-16T18:08:14;1.77;;;1.57;;
25349;SDS011;13302;48.796;11.978;2022-10-16T18:11:02;3.70;;;1.90;;
25349;SDS011;13302;48.796;11.978;2022-10-16T18:13:53;3.10;;;1.70;;
25349;SDS011;13302;48.796;11.978;2022-10-16T18:16:41;3.00;;;1.60;;
25349;SDS011;13302;48.796;11.978;2022-10-16T18:19:28;2.00;;;1.50;;
25349;SDS011;13302;48.796;11.978;2022-10-16T18:22:16;3.80;;;1.80;;
25349;SDS011;13302;48.796;11.978;2022-10-16T18:25:04;3.07;;;2.10;;
25349;SDS011;13302;48.796;11.978;2022-10-16T18:27:52;3.73;;;1.70;;